createdAt,value
2023-03-03T00:01:09.892Z,1.20
2023-03-03T00:03:48.393Z,1.10
2023-03-03T00:06:19.016Z,1.30
2023-03-03T00:08:47.881Z,1.20
2023-03-03T00:11:16.388Z,1.10
2023-03-03T00:13:48.917Z,1.20
2023-03-03T00:16:23.474Z,1.00
2023-03-03T00:18:52.632Z,2.60
2023-03-03T00:21:29.505Z,1.10
2023-03-03T00:24:25.118Z,1.10
2023-03-03T00:26:55.619Z,1.10
2023-03-03T00:29:36.022Z,1.10
2023-03-03T00:32:25.678Z,1.10
2023-03-03T00:34:56.249Z,1.40
2023-03-03T00:37:30.420Z,1.00
2023-03-03T00:40:21.117Z,1.40
2023-03-03T00:42:52.422Z,1.00
2023-03-03T00:45:28.769Z,1.10
2023-03-03T00:47:58.575Z,0.90
2023-03-03T00:50:34.533Z,1.10
2023-03-03T00:53:12.269Z,1.00
2023-03-03T00:55:40.827Z,1.00
2023-03-03T00:58:08.886Z,0.90
2023-03-03T01:00:37.689Z,0.70
2023-03-03T01:03:07.821Z,1.50
2023-03-03T01:05:36.365Z,1.00
2023-03-03T01:08:05.197Z,1.00
2023-03-03T01:10:38.682Z,1.00
2023-03-03T01:13:07.814Z,1.00
2023-03-03T01:18:05.210Z,1.00
2023-03-03T01:25:30.811Z,1.20
2023-03-03T01:28:00.643Z,1.40
2023-03-03T01:30:28.825Z,1.10
2023-03-03T01:32:56.819Z,1.00
2023-03-03T01:35:25.367Z,0.60
2023-03-03T01:37:53.405Z,1.00
2023-03-03T01:40:23.637Z,0.80
2023-03-03T01:42:52.723Z,1.10
2023-03-03T01:45:27.034Z,0.90
2023-03-03T01:48:01.225Z,0.80
2023-03-03T01:50:39.014Z,0.50
2023-03-03T01:53:12.815Z,1.10
2023-03-03T01:55:43.044Z,1.00
2023-03-03T01:58:15.595Z,0.80
2023-03-03T02:00:50.963Z,1.00
2023-03-03T02:03:21.042Z,0.90
2023-03-03T02:05:50.017Z,1.00
2023-03-03T02:08:22.842Z,0.90
2023-03-03T02:13:20.305Z,1.00
2023-03-03T02:15:49.914Z,0.90
2023-03-03T02:18:21.114Z,1.60
2023-03-03T02:20:58.124Z,0.70
2023-03-03T02:23:32.003Z,1.00
2023-03-03T02:26:13.612Z,1.00
2023-03-03T02:28:42.010Z,1.10
2023-03-03T02:31:13.632Z,1.80
2023-03-03T02:33:43.425Z,1.10
2023-03-03T02:36:14.622Z,0.90
2023-03-03T02:38:48.784Z,1.00
2023-03-03T02:41:29.987Z,1.10
2023-03-03T02:44:01.967Z,1.60
2023-03-03T02:48:59.203Z,1.10
2023-03-03T02:56:25.532Z,1.50
2023-03-03T14:49:39.047Z,12.60
2023-03-03T14:52:21.272Z,11.90
2023-03-03T14:57:46.366Z,11.10
2023-03-03T15:01:04.454Z,11.10
2023-03-03T15:03:38.642Z,11.50
2023-03-03T15:06:22.952Z,11.20
2023-03-03T15:08:52.524Z,10.50
2023-03-03T15:11:38.960Z,10.80
2023-03-03T15:14:26.734Z,11.00
2023-03-03T16:13:55.012Z,8.80
2023-03-03T16:16:35.665Z,8.70
2023-03-03T16:19:24.417Z,8.50
2023-03-03T16:22:12.908Z,8.60
2023-03-03T16:24:53.446Z,11.30
2023-03-03T16:44:33.474Z,7.80
2023-03-03T17:14:51.085Z,7.20
2023-03-03T17:17:34.086Z,5.80
2023-03-03T17:20:26.062Z,7.10
2023-03-03T17:25:46.855Z,7.00
2023-03-03T17:28:33.796Z,6.90
2023-03-03T17:31:23.442Z,6.80
2023-03-03T17:34:29.310Z,6.80
2023-03-03T17:45:20.950Z,6.60
2023-03-03T17:48:11.367Z,6.70
2023-03-03T17:57:11.348Z,6.30
2023-03-03T18:03:29.456Z,6.20
2023-03-03T18:06:52.300Z,6.30
2023-03-03T18:09:47.512Z,6.10
2023-03-03T18:12:36.238Z,6.10
2023-03-03T18:21:40.184Z,5.90
2023-03-03T18:40:50.186Z,5.70
2023-03-03T18:46:06.351Z,5.60
2023-03-03T18:48:54.464Z,5.70
2023-03-03T18:51:51.652Z,5.50
2023-03-03T18:54:33.415Z,5.70
2023-03-03T18:57:18.552Z,5.40
2023-03-03T19:00:00.233Z,8.30
2023-03-03T19:02:46.507Z,5.30
2023-03-03T19:05:23.517Z,5.30
2023-03-03T19:08:00.707Z,5.40
2023-03-03T19:11:01.040Z,5.30
2023-03-03T19:13:52.014Z,5.40
2023-03-03T19:16:37.302Z,4.80
2023-03-03T19:19:17.719Z,5.10
2023-03-03T19:21:51.219Z,5.10
2023-03-03T19:24:35.051Z,5.10
2023-03-03T19:27:32.762Z,5.10
2023-03-03T19:30:30.454Z,5.00
2023-03-03T19:33:40.982Z,4.80
2023-03-03T19:36:23.129Z,4.90
2023-03-03T19:39:13.585Z,6.20
2023-03-03T19:41:54.462Z,6.40
2023-03-03T19:44:36.420Z,4.80
2023-03-03T19:47:11.655Z,4.90
2023-03-03T19:49:57.811Z,4.80
2023-03-03T19:52:39.421Z,8.30
2023-03-03T19:55:26.082Z,5.00
2023-03-03T19:58:05.016Z,7.60
2023-03-03T20:03:36.485Z,4.90
2023-03-03T20:06:18.734Z,4.40
2023-03-03T20:08:57.611Z,4.50
2023-03-03T20:11:46.387Z,5.80
2023-03-03T20:14:40.085Z,3.80
2023-03-03T20:17:32.197Z,4.60
2023-03-03T20:20:26.233Z,4.50
2023-03-03T20:29:19.031Z,4.30
2023-03-03T20:32:10.628Z,4.30
2023-03-03T20:34:53.782Z,4.20
2023-03-03T20:37:35.689Z,4.20
2023-03-03T20:40:22.276Z,4.20
2023-03-03T20:43:02.119Z,4.00
2023-03-03T20:45:47.184Z,4.00
2023-03-03T20:51:06.555Z,4.10
2023-03-03T20:53:47.438Z,4.00
2023-03-03T20:56:23.245Z,4.00
2023-03-03T20:59:15.715Z,3.90
2023-03-03T21:01:53.706Z,3.80
2023-03-03T21:04:26.560Z,3.80
2023-03-03T21:06:56.217Z,3.80
2023-03-03T21:09:32.804Z,4.80
2023-03-03T21:12:05.078Z,3.80
2023-03-03T21:14:37.344Z,3.80
2023-03-03T21:17:29.101Z,3.70
2023-03-03T21:20:18.238Z,3.60
2023-03-03T21:22:48.733Z,3.50
2023-03-03T21:25:49.133Z,3.60
2023-03-03T21:28:25.837Z,5.00
2023-03-03T21:31:05.132Z,3.50
2023-03-03T21:33:50.101Z,3.50
2023-03-03T21:36:25.421Z,3.40
2023-03-03T21:39:02.607Z,3.40
2023-03-03T21:41:53.048Z,3.40
2023-03-03T21:44:37.932Z,3.40
2023-03-03T21:47:09.773Z,3.40
2023-03-03T21:49:45.116Z,3.30
2023-03-03T21:55:21.267Z,3.20
2023-03-03T21:58:12.070Z,3.10
2023-03-03T22:00:55.387Z,3.20
2023-03-03T22:03:28.389Z,3.20
2023-03-03T22:05:57.719Z,3.20
2023-03-03T22:08:28.898Z,3.20
2023-03-03T22:10:57.394Z,3.10
2023-03-03T22:13:30.131Z,3.10
2023-03-03T22:15:58.863Z,3.10
2023-03-03T22:18:27.331Z,3.00
2023-03-03T22:20:55.541Z,2.60
2023-03-03T22:23:23.721Z,3.00
2023-03-03T22:25:52.388Z,2.90
2023-03-03T22:28:20.753Z,3.00
2023-03-03T22:30:50.626Z,5.10
2023-03-03T22:33:18.762Z,2.90
2023-03-03T22:35:47.098Z,3.60
2023-03-03T22:38:16.740Z,2.00
2023-03-03T22:40:46.108Z,3.20
2023-03-03T22:43:17.439Z,3.10
2023-03-03T22:45:47.294Z,2.90
2023-03-03T22:48:17.078Z,2.70
2023-03-03T22:50:47.660Z,2.90
2023-03-03T22:53:16.199Z,2.30
2023-03-03T22:55:46.220Z,5.30
2023-03-03T22:58:14.686Z,2.80
2023-03-03T23:00:43.343Z,2.00
2023-03-03T23:03:13.593Z,4.00
2023-03-03T23:05:43.995Z,2.80
2023-03-03T23:08:15.462Z,2.80
2023-03-03T23:10:44.108Z,2.80
2023-03-03T23:13:12.387Z,2.70
2023-03-03T23:15:41.060Z,2.80
2023-03-03T23:18:09.424Z,2.60
2023-03-03T23:20:37.954Z,2.70
2023-03-03T23:23:08.102Z,2.80
2023-03-03T23:25:38.449Z,2.60
2023-03-03T23:28:08.255Z,0.60
2023-03-03T23:30:38.033Z,2.60
2023-03-03T23:33:07.709Z,2.60
2023-03-03T23:35:36.709Z,2.60
2023-03-03T23:38:08.720Z,4.40
2023-03-03T23:40:37.408Z,2.60
2023-03-03T23:43:06.573Z,2.50
2023-03-03T23:45:35.760Z,2.10
2023-03-03T23:48:04.038Z,2.50
2023-03-03T23:50:33.394Z,2.90
2023-03-03T23:53:01.801Z,2.50
2023-03-03T23:58:00.828Z,2.50
